createdAt,value
2023-02-10T00:02:03.241Z,23.80
2023-02-10T00:04:52.274Z,21.10
2023-02-10T00:07:41.003Z,19.50
2023-02-10T00:10:29.705Z,18.30
2023-02-10T00:13:18.468Z,17.40
2023-02-10T00:16:10.665Z,16.60
2023-02-10T00:18:59.435Z,16.30
2023-02-10T00:21:31.002Z,18.50
2023-02-10T00:24:20.259Z,14.10
2023-02-10T00:27:09.244Z,20.30
2023-02-10T00:29:58.179Z,18.70
2023-02-10T00:32:47.233Z,16.00
2023-02-10T00:35:38.183Z,15.70
2023-02-10T00:38:27.397Z,14.50
2023-02-10T00:41:18.574Z,18.90
2023-02-10T00:44:07.488Z,17.50
2023-02-10T00:46:56.351Z,21.20
2023-02-10T00:49:45.322Z,17.20
2023-02-10T00:52:34.242Z,18.40
2023-02-10T00:55:23.008Z,18.90
2023-02-10T00:58:11.914Z,17.90
2023-02-10T01:01:00.766Z,16.80
2023-02-10T01:03:49.576Z,18.80
2023-02-10T01:06:38.594Z,15.60
2023-02-10T01:09:17.975Z,16.40
2023-02-10T01:12:08.522Z,17.00
2023-02-10T01:14:57.181Z,14.50
2023-02-10T01:17:46.480Z,17.10
2023-02-10T01:20:38.117Z,17.20
2023-02-10T01:23:27.043Z,15.00
2023-02-10T01:26:16.661Z,18.10
2023-02-10T01:29:05.760Z,17.70
2023-02-10T01:31:54.580Z,17.50
2023-02-10T01:34:28.393Z,18.30
2023-02-10T01:37:17.299Z,17.70
2023-02-10T01:40:08.563Z,16.20
2023-02-10T01:42:57.256Z,16.60
2023-02-10T01:45:46.724Z,17.80
2023-02-10T01:48:35.903Z,17.00
2023-02-10T01:51:38.890Z,20.20
2023-02-10T01:54:33.283Z,19.50
2023-02-10T01:57:23.521Z,22.80
2023-02-10T02:00:14.838Z,18.90
2023-02-10T02:03:05.086Z,16.10
2023-02-10T02:05:54.006Z,19.00
2023-02-10T02:08:43.202Z,17.10
2023-02-10T02:11:42.512Z,18.00
2023-02-10T02:14:38.671Z,19.60
2023-02-10T02:17:34.416Z,20.20
2023-02-10T02:21:00.753Z,17.60
2023-02-10T02:24:15.105Z,21.50
2023-02-10T02:27:18.651Z,15.90
2023-02-10T02:30:35.900Z,20.00
2023-02-10T02:33:28.072Z,17.50
2023-02-10T02:36:23.787Z,16.40
2023-02-10T02:39:12.695Z,19.30
2023-02-10T02:42:20.358Z,18.40
2023-02-10T02:45:14.780Z,20.00
2023-02-10T02:48:17.894Z,18.20
2023-02-10T02:51:15.472Z,19.20
2023-02-10T02:54:14.871Z,17.10
2023-02-10T02:57:11.221Z,18.80
2023-02-10T03:00:06.059Z,20.60
2023-02-10T03:02:55.110Z,18.60
2023-02-10T03:05:43.794Z,21.70
2023-02-10T03:08:35.318Z,16.60
2023-02-10T03:11:23.883Z,18.30
2023-02-10T03:14:12.608Z,18.10
2023-02-10T03:17:01.352Z,16.90
2023-02-10T03:19:50.552Z,19.80
2023-02-10T03:22:39.477Z,19.00
2023-02-10T03:25:17.629Z,17.00
2023-02-10T03:28:06.698Z,18.70
2023-02-10T03:30:55.725Z,20.50
2023-02-10T03:33:44.498Z,18.90
2023-02-10T03:36:33.944Z,19.80
2023-02-10T03:39:22.590Z,19.60
2023-02-10T03:42:11.716Z,16.90
2023-02-10T03:45:00.350Z,19.20
2023-02-10T03:47:49.170Z,16.10
2023-02-10T03:50:37.854Z,15.90
2023-02-10T03:53:26.920Z,19.70
2023-02-10T03:56:15.948Z,19.50
2023-02-10T03:59:05.600Z,17.50
2023-02-10T04:01:54.347Z,17.50
2023-02-10T04:04:43.271Z,18.50
2023-02-10T04:07:32.070Z,17.90
2023-02-10T04:10:21.226Z,20.50
2023-02-10T04:13:10.034Z,19.30
2023-02-10T04:15:41.658Z,19.50
2023-02-10T04:18:30.336Z,20.10
2023-02-10T04:21:19.200Z,17.30
2023-02-10T04:24:07.943Z,17.90
2023-02-10T04:26:56.770Z,16.70
2023-02-10T04:29:45.477Z,18.30
2023-02-10T04:32:34.130Z,19.30
2023-02-10T04:35:22.882Z,18.70
2023-02-10T04:38:11.817Z,18.70
2023-02-10T04:40:43.564Z,18.00
2023-02-10T04:43:32.384Z,18.50
2023-02-10T04:46:21.302Z,15.80
2023-02-10T04:49:10.055Z,20.50
2023-02-10T04:51:58.851Z,16.90
2023-02-10T04:54:47.618Z,20.50
2023-02-10T04:57:36.416Z,18.60
2023-02-10T05:00:25.579Z,18.40
2023-02-10T05:03:04.854Z,20.20
2023-02-10T05:05:53.837Z,19.10
2023-02-10T05:08:43.505Z,19.10
2023-02-10T05:11:32.380Z,20.00
2023-02-10T05:14:21.140Z,19.30
2023-02-10T05:17:09.840Z,18.20
2023-02-10T05:19:58.450Z,16.90
2023-02-10T05:22:47.420Z,18.50
2023-02-10T05:25:36.281Z,18.10
2023-02-10T05:28:25.209Z,17.80
2023-02-10T05:31:14.238Z,18.10
2023-02-10T05:34:03.112Z,18.30
2023-02-10T05:36:44.511Z,19.50
2023-02-10T05:39:33.255Z,22.70
2023-02-10T05:42:22.023Z,20.00
2023-02-10T05:45:11.228Z,19.40
2023-02-10T05:47:59.977Z,19.20
2023-02-10T05:50:51.989Z,18.90
2023-02-10T05:53:40.651Z,18.20
2023-02-10T05:56:29.456Z,20.30
2023-02-10T05:59:18.162Z,19.50
2023-02-10T06:02:07.013Z,21.70
2023-02-10T06:04:55.970Z,20.30
2023-02-10T06:07:44.845Z,18.30
2023-02-10T06:10:34.027Z,20.10
2023-02-10T06:13:05.748Z,19.70
2023-02-10T06:15:54.694Z,21.10
2023-02-10T06:18:44.947Z,18.60
2023-02-10T06:21:25.161Z,21.00
2023-02-10T06:24:14.403Z,20.50
2023-02-10T06:27:03.172Z,20.10
2023-02-10T06:29:51.736Z,23.00
2023-02-10T06:32:40.467Z,24.60
2023-02-10T06:35:29.103Z,20.40
2023-02-10T06:38:18.021Z,23.60
2023-02-10T06:41:07.255Z,25.70
2023-02-10T06:43:55.888Z,27.40
2023-02-10T06:46:44.505Z,27.30
2023-02-10T06:49:21.863Z,20.00
2023-02-10T06:51:50.548Z,19.00
2023-02-10T06:54:39.255Z,21.90
2023-02-10T06:57:27.945Z,21.60
2023-02-10T07:00:17.264Z,21.10
2023-02-10T07:03:06.014Z,22.70
2023-02-10T07:05:54.704Z,23.10
2023-02-10T07:08:43.307Z,24.30
2023-02-10T07:11:15.097Z,20.70
2023-02-10T07:14:03.917Z,21.10
2023-02-10T07:16:52.852Z,20.40
2023-02-10T07:19:41.648Z,23.40
2023-02-10T07:22:30.484Z,21.50
2023-02-10T07:25:19.609Z,19.40
2023-02-10T07:28:08.677Z,24.10
2023-02-10T07:30:57.453Z,24.70
2023-02-10T07:33:46.381Z,23.90
2023-02-10T07:36:17.065Z,23.00
2023-02-10T07:39:05.908Z,20.50
2023-02-10T07:41:54.889Z,22.10
2023-02-10T07:44:23.424Z,18.20
2023-02-10T07:47:12.141Z,22.70
2023-02-10T07:49:40.668Z,20.10
2023-02-10T07:52:29.307Z,21.10
2023-02-10T07:55:18.297Z,18.30
2023-02-10T07:58:07.424Z,25.90
2023-02-10T08:00:56.143Z,22.20
2023-02-10T08:03:33.436Z,22.90
2023-02-10T08:06:23.632Z,19.70
2023-02-10T08:09:12.325Z,24.10
2023-02-10T08:12:01.038Z,25.50
2023-02-10T08:14:49.622Z,24.10
2023-02-10T08:17:38.852Z,22.70
2023-02-10T08:20:28.101Z,23.90
2023-02-10T08:23:18.392Z,25.80
2023-02-10T08:26:09.035Z,23.80
2023-02-10T08:28:59.683Z,25.60
2023-02-10T08:31:51.610Z,23.60
2023-02-10T08:34:25.479Z,21.00
2023-02-10T08:37:14.796Z,26.70
2023-02-10T08:39:46.253Z,29.40
2023-02-10T08:42:35.424Z,30.30
2023-02-10T08:45:24.089Z,28.30
2023-02-10T08:48:13.097Z,25.60
2023-02-10T08:51:05.572Z,28.10
2023-02-10T08:53:56.178Z,25.80
2023-02-10T08:56:45.575Z,27.20
2023-02-10T08:59:34.300Z,23.60
2023-02-10T09:02:22.947Z,25.40
2023-02-10T09:05:11.612Z,26.30
2023-02-10T09:08:00.205Z,26.70
2023-02-10T09:10:49.357Z,25.60
2023-02-10T09:13:38.134Z,25.40
2023-02-10T09:16:26.995Z,22.20
2023-02-10T09:19:15.687Z,25.20
2023-02-10T09:22:05.161Z,25.60
2023-02-10T09:24:55.105Z,27.50
2023-02-10T09:27:33.603Z,27.40
2023-02-10T09:30:22.501Z,21.40
2023-02-10T09:33:11.059Z,20.80
2023-02-10T09:35:59.766Z,27.40
2023-02-10T09:38:51.353Z,24.70
2023-02-10T09:41:56.125Z,28.50
2023-02-10T09:44:51.195Z,26.80
2023-02-10T09:47:48.279Z,25.80
2023-02-10T09:50:51.984Z,23.70
2023-02-10T09:53:40.639Z,22.80
2023-02-10T09:56:30.466Z,25.50
2023-02-10T09:59:23.586Z,21.60
2023-02-10T10:02:19.229Z,22.10
2023-02-10T10:05:20.226Z,23.60
2023-02-10T10:08:17.783Z,25.00
2023-02-10T10:11:28.319Z,23.00
2023-02-10T10:14:20.204Z,24.40
2023-02-10T10:17:36.010Z,25.50
2023-02-10T10:20:38.192Z,25.10
2023-02-10T10:23:43.260Z,24.20
2023-02-10T10:26:57.681Z,27.60
2023-02-10T10:29:53.038Z,23.00
2023-02-10T10:32:45.355Z,25.70
2023-02-10T10:35:40.287Z,24.10
2023-02-10T10:38:32.060Z,29.60
2023-02-10T10:41:24.685Z,26.80
2023-02-10T10:44:17.386Z,23.80
2023-02-10T10:47:13.505Z,24.40
2023-02-10T10:49:47.470Z,23.10
2023-02-10T10:52:38.313Z,28.20
2023-02-10T10:55:32.779Z,28.60
2023-02-10T10:58:27.582Z,28.70
2023-02-10T11:01:18.274Z,29.70
2023-02-10T11:04:12.581Z,27.10
2023-02-10T11:07:02.381Z,26.00
2023-02-10T11:09:52.865Z,31.10
2023-02-10T11:12:45.919Z,27.50
2023-02-10T11:15:33.013Z,30.10
2023-02-10T11:18:23.875Z,31.30
2023-02-10T11:21:12.506Z,28.10
2023-02-10T11:23:52.620Z,26.80
2023-02-10T11:26:41.283Z,33.20
2023-02-10T11:29:18.633Z,28.30
2023-02-10T11:32:17.723Z,34.10
2023-02-10T11:35:15.676Z,28.90
2023-02-10T11:38:08.418Z,27.40
2023-02-10T11:40:59.169Z,27.70
2023-02-10T11:43:48.690Z,28.30
2023-02-10T11:46:37.318Z,29.30
2023-02-10T11:49:31.042Z,30.10
2023-02-10T11:52:22.908Z,32.20
2023-02-10T11:55:14.642Z,33.50
2023-02-10T11:58:39.913Z,27.80
2023-02-10T12:01:48.284Z,29.50
2023-02-10T12:04:54.401Z,28.50
2023-02-10T12:07:58.503Z,29.10
2023-02-10T12:10:51.716Z,28.30
2023-02-10T12:13:48.552Z,26.50
2023-02-10T12:16:49.295Z,29.20
2023-02-10T12:19:47.620Z,32.20
2023-02-10T12:22:45.070Z,31.30
2023-02-10T12:25:40.708Z,27.20
2023-02-10T12:28:40.069Z,31.30
2023-02-10T12:31:27.812Z,31.50
2023-02-10T12:34:43.432Z,27.50
2023-02-10T12:37:28.283Z,28.80
2023-02-10T12:40:27.796Z,33.30
2023-02-10T12:43:23.651Z,37.10
2023-02-10T12:46:20.203Z,33.60
2023-02-10T12:49:23.608Z,26.90
2023-02-10T12:52:18.449Z,27.90
2023-02-10T12:55:15.953Z,32.80
2023-02-10T12:58:14.429Z,33.20
2023-02-10T13:00:48.636Z,30.90
2023-02-10T13:03:39.930Z,31.60
2023-02-10T13:06:21.544Z,27.20
2023-02-10T13:09:17.624Z,24.30
2023-02-10T13:12:16.356Z,28.10
2023-02-10T13:15:13.578Z,26.30
2023-02-10T13:18:02.802Z,31.90
2023-02-10T13:21:01.516Z,29.30
2023-02-10T13:23:54.727Z,27.00
2023-02-10T13:27:01.078Z,30.80
2023-02-10T13:30:00.571Z,30.30
2023-02-10T13:32:59.293Z,28.70
2023-02-10T13:35:49.817Z,24.10
2023-02-10T13:38:39.191Z,24.50
2023-02-10T13:41:46.575Z,25.20
2023-02-10T13:44:44.159Z,24.40
2023-02-10T13:47:37.714Z,26.50
2023-02-10T13:50:32.389Z,37.50
2023-02-10T13:53:42.533Z,31.30
2023-02-10T13:56:33.483Z,27.00
2023-02-10T13:59:35.148Z,38.90
2023-02-10T14:02:22.113Z,24.20
2023-02-10T14:05:25.550Z,27.20
2023-02-10T14:08:15.571Z,24.20
2023-02-10T14:11:26.571Z,30.50
2023-02-10T14:14:21.844Z,20.20
2023-02-10T14:17:30.143Z,23.60
2023-02-10T14:20:25.253Z,35.90
2023-02-10T14:23:22.663Z,28.60
2023-02-10T14:26:18.715Z,27.80
2023-02-10T14:29:13.199Z,24.80
2023-02-10T14:31:56.327Z,28.40
2023-02-10T14:34:29.985Z,29.70
2023-02-10T14:37:20.991Z,26.40
2023-02-10T14:40:19.408Z,28.70
2023-02-10T14:43:14.713Z,24.90
2023-02-10T14:46:04.313Z,31.20
2023-02-10T14:48:58.986Z,33.00
2023-02-10T14:51:41.615Z,34.20
2023-02-10T14:54:30.896Z,33.10
2023-02-10T14:57:03.506Z,35.60
2023-02-10T14:59:56.936Z,34.70
2023-02-10T15:02:53.027Z,38.50
2023-02-10T15:05:50.964Z,41.40
2023-02-10T15:08:44.913Z,36.60
2023-02-10T15:11:55.654Z,41.60
2023-02-10T15:14:50.540Z,41.00
2023-02-10T15:17:42.525Z,38.80
2023-02-10T15:20:33.049Z,39.70
2023-02-10T15:23:29.046Z,40.20
2023-02-10T15:26:21.165Z,37.00
2023-02-10T15:29:13.270Z,38.50
2023-02-10T15:32:03.285Z,40.20
2023-02-10T15:34:53.194Z,39.50
2023-02-10T15:37:42.112Z,38.20
2023-02-10T15:40:31.258Z,38.70
2023-02-10T15:43:26.501Z,37.80
2023-02-10T15:46:18.278Z,39.20
2023-02-10T15:49:09.552Z,36.60
2023-02-10T15:51:58.126Z,36.20
2023-02-10T15:54:49.422Z,37.80
2023-02-10T15:57:38.281Z,31.70
2023-02-10T16:00:29.684Z,37.10
2023-02-10T16:03:18.335Z,39.60
2023-02-10T16:06:09.574Z,34.50
2023-02-10T16:08:58.203Z,38.50
2023-02-10T16:11:47.088Z,35.50
2023-02-10T16:14:35.892Z,32.50
2023-02-10T16:17:28.456Z,34.30
2023-02-10T16:20:20.819Z,40.60
2023-02-10T16:22:52.133Z,37.50
2023-02-10T16:25:41.374Z,40.60
2023-02-10T16:28:30.253Z,41.70
2023-02-10T16:31:19.794Z,35.30
2023-02-10T16:34:08.628Z,35.70
2023-02-10T16:36:58.886Z,37.90
2023-02-10T16:39:49.424Z,38.90
2023-02-10T16:42:39.076Z,41.40
2023-02-10T16:45:29.184Z,37.50
2023-02-10T16:48:18.312Z,41.70
2023-02-10T16:51:06.928Z,41.30
2023-02-10T16:53:55.577Z,44.30
2023-02-10T16:56:44.743Z,45.00
2023-02-10T16:59:33.630Z,46.30
2023-02-10T17:02:22.297Z,43.20
2023-02-10T17:05:12.094Z,48.80
2023-02-10T17:08:01.050Z,46.70
2023-02-10T17:10:51.714Z,48.70
2023-02-10T17:13:40.867Z,46.00
2023-02-10T17:16:35.192Z,49.20
2023-02-10T17:19:27.218Z,49.90
2023-02-10T17:22:15.813Z,53.70
2023-02-10T17:25:05.208Z,56.40
2023-02-10T17:27:54.862Z,55.40
2023-02-10T17:30:44.105Z,49.30
2023-02-10T17:33:32.836Z,50.10
2023-02-10T17:36:23.465Z,57.10
2023-02-10T17:39:33.737Z,56.70
2023-02-10T17:42:22.401Z,55.70
2023-02-10T17:45:13.597Z,53.10
2023-02-10T17:48:02.763Z,50.20
2023-02-10T17:50:51.738Z,50.50
2023-02-10T17:53:40.968Z,51.50
2023-02-10T17:56:29.778Z,45.30
2023-02-10T17:59:18.704Z,45.10
2023-02-10T18:02:10.193Z,51.70
2023-02-10T18:04:59.187Z,53.10
2023-02-10T18:07:47.787Z,49.80
2023-02-10T18:10:38.113Z,52.10
2023-02-10T18:13:27.611Z,54.30
2023-02-10T18:16:17.100Z,62.80
2023-02-10T18:18:48.654Z,54.10
2023-02-10T18:21:37.292Z,56.00
2023-02-10T18:24:26.285Z,62.40
2023-02-10T18:27:14.976Z,58.30
2023-02-10T18:29:46.361Z,56.60
2023-02-10T18:32:35.442Z,54.60
2023-02-10T18:35:24.095Z,50.50
2023-02-10T18:38:12.774Z,54.40
2023-02-10T18:41:01.909Z,57.00
2023-02-10T18:43:50.650Z,55.70
2023-02-10T18:46:39.270Z,53.60
2023-02-10T18:49:28.420Z,55.80
2023-02-10T18:52:17.633Z,55.80
2023-02-10T18:55:07.245Z,55.70
2023-02-10T18:57:58.798Z,59.80
2023-02-10T19:00:48.306Z,56.90
2023-02-10T19:03:37.587Z,57.50
2023-02-10T19:06:26.199Z,56.00
2023-02-10T19:09:16.104Z,56.90
2023-02-10T19:12:06.468Z,48.70
2023-02-10T19:14:55.225Z,52.30
2023-02-10T19:17:43.812Z,50.90
2023-02-10T19:20:33.121Z,42.40
2023-02-10T19:23:13.189Z,44.80
2023-02-10T19:26:01.748Z,42.90
2023-02-10T19:28:50.640Z,45.50
2023-02-10T19:31:39.487Z,41.90
2023-02-10T19:34:28.768Z,42.60
2023-02-10T19:37:17.452Z,45.50
2023-02-10T19:40:08.017Z,50.80
2023-02-10T19:42:57.149Z,42.20
2023-02-10T19:45:28.798Z,35.30
2023-02-10T19:48:18.294Z,42.20
2023-02-10T19:50:52.248Z,43.30
2023-02-10T19:53:41.391Z,40.80
2023-02-10T19:56:30.081Z,41.40
2023-02-10T19:59:18.847Z,39.50
2023-02-10T20:02:08.640Z,49.00
2023-02-10T20:04:57.309Z,42.70
2023-02-10T20:07:46.100Z,43.10
2023-02-10T20:10:34.796Z,41.80
2023-02-10T20:13:08.416Z,44.20
2023-02-10T20:15:59.491Z,44.60
2023-02-10T20:18:48.122Z,45.60
2023-02-10T20:21:39.509Z,48.10
2023-02-10T20:24:29.105Z,46.80
2023-02-10T20:27:13.540Z,48.60
2023-02-10T20:30:02.262Z,44.40
2023-02-10T20:32:50.918Z,50.00
2023-02-10T20:35:40.882Z,50.10
2023-02-10T20:38:30.546Z,45.30
2023-02-10T20:41:21.302Z,50.50
2023-02-10T20:44:09.994Z,49.60
2023-02-10T20:46:58.593Z,48.50
2023-02-10T20:49:47.212Z,49.10
2023-02-10T20:52:36.616Z,51.00
2023-02-10T20:55:25.215Z,51.60
2023-02-10T20:58:13.881Z,45.00
2023-02-10T21:01:04.908Z,51.20
2023-02-10T21:03:53.537Z,47.70
2023-02-10T21:06:43.926Z,48.80
2023-02-10T21:09:33.179Z,47.40
2023-02-10T21:12:10.588Z,53.00
2023-02-10T21:14:59.274Z,50.00
2023-02-10T21:17:48.232Z,49.00
2023-02-10T21:20:36.833Z,45.80
2023-02-10T21:23:25.575Z,49.90
2023-02-10T21:26:14.851Z,51.50
2023-02-10T21:29:03.617Z,45.60
2023-02-10T21:31:52.365Z,52.30
2023-02-10T21:34:41.869Z,47.40
2023-02-10T21:37:30.576Z,50.70
2023-02-10T21:40:19.312Z,49.90
2023-02-10T21:43:08.773Z,52.90
2023-02-10T21:45:57.607Z,47.70
2023-02-10T21:48:46.269Z,49.60
2023-02-10T21:51:34.975Z,51.50
2023-02-10T21:54:26.221Z,50.80
2023-02-10T21:57:18.378Z,49.90
2023-02-10T22:00:08.582Z,43.50
2023-02-10T22:02:41.481Z,46.20
2023-02-10T22:05:30.526Z,49.10
2023-02-10T22:08:19.644Z,48.50
2023-02-10T22:11:10.806Z,48.90
2023-02-10T22:13:59.564Z,45.30
2023-02-10T22:16:48.602Z,49.80
2023-02-10T22:19:37.662Z,48.80
2023-02-10T22:22:26.429Z,45.00
2023-02-10T22:25:15.289Z,46.70
2023-02-10T22:28:04.115Z,47.20
2023-02-10T22:30:52.775Z,48.70
2023-02-10T22:33:41.355Z,50.10
2023-02-10T22:36:30.302Z,53.00
2023-02-10T22:39:18.986Z,48.10
2023-02-10T22:42:08.548Z,53.20
2023-02-10T22:44:57.197Z,51.10
2023-02-10T22:47:46.252Z,51.00
2023-02-10T22:50:34.894Z,42.50
2023-02-10T22:53:23.459Z,49.40
2023-02-10T22:56:14.716Z,49.60
2023-02-10T22:59:05.305Z,48.00
2023-02-10T23:01:57.329Z,50.80
2023-02-10T23:04:46.421Z,50.50
2023-02-10T23:07:35.145Z,48.10
2023-02-10T23:10:23.793Z,47.70
2023-02-10T23:13:12.432Z,49.20
2023-02-10T23:16:01.167Z,47.20
2023-02-10T23:18:49.804Z,49.70
2023-02-10T23:21:38.515Z,49.60
2023-02-10T23:24:27.357Z,47.00
2023-02-10T23:27:15.962Z,47.60
2023-02-10T23:30:05.794Z,51.50
2023-02-10T23:32:54.425Z,44.90
2023-02-10T23:35:44.341Z,50.70
2023-02-10T23:38:33.097Z,51.30
2023-02-10T23:41:21.994Z,48.90
2023-02-10T23:44:11.338Z,46.50
2023-02-10T23:46:59.989Z,51.60
2023-02-10T23:49:51.032Z,51.00
2023-02-10T23:52:22.408Z,51.50
2023-02-10T23:55:11.392Z,53.80
2023-02-10T23:57:59.999Z,56.30
